Time;durP1;ratioP1;P1;durP2;ratioP2;P2;SDS_P1;SDS_P2;PMS_P1;PMS_P2;Temp;Humidity;BMP_temperature;BMP_pressure;BME280_temperature;BME280_humidity;BME280_pressure;Samples;Min_cycle;Max_cycle;Signal;HPM_P1;HPM_P2
2021/11/18 00:01:23;;;;;;;10.07;7.10;;;23.50;44.80;;;;;;6138884;28;80320;-67
2021/11/18 00:04:23;;;;;;;9.40;6.43;;;23.50;45.20;;;;;;6154776;28;80395;-68
2021/11/18 00:07:24;;;;;;;10.63;6.90;;;23.50;44.70;;;;;;6140373;28;81069;-67
2021/11/18 00:10:24;;;;;;;10.63;7.07;;;23.50;44.70;;;;;;6150578;28;81194;-67
2021/11/18 00:13:27;;;;;;;9.07;6.00;;;23.50;44.70;;;;;;6154620;28;82828;-67
2021/11/18 00:16:27;;;;;;;8.95;6.10;;;23.50;44.60;;;;;;6139385;28;81312;-66
2021/11/18 00:19:28;;;;;;;8.02;5.63;;;23.50;45.40;;;;;;6150012;28;80826;-67
2021/11/18 00:22:28;;;;;;;8.40;6.22;;;23.50;44.90;;;;;;6142217;28;80772;-67
2021/11/18 00:25:29;;;;;;;9.30;6.22;;;23.50;45.10;;;;;;6141748;28;81794;-67
2021/11/18 00:28:29;;;;;;;8.57;5.95;;;23.50;45.90;;;;;;6147539;28;80068;-67
2021/11/18 00:31:30;;;;;;;9.82;6.30;;;23.50;45.30;;;;;;6146452;28;80271;-67
2021/11/18 00:34:30;;;;;;;7.97;6.00;;;23.50;45.40;;;;;;6152064;28;81671;-68
2021/11/18 00:37:31;;;;;;;9.98;6.63;;;23.50;45.30;;;;;;6149897;28;80440;-68
2021/11/18 00:40:31;;;;;;;8.55;6.32;;;23.50;45.30;;;;;;6137335;28;81428;-68
2021/11/18 00:43:33;;;;;;;9.10;6.22;;;23.50;45.40;;;;;;6152429;28;81933;-68
2021/11/18 00:46:34;;;;;;;9.80;6.38;;;23.50;45.20;;;;;;6153485;28;80443;-68
2021/11/18 00:49:34;;;;;;;9.70;5.90;;;23.50;45.30;;;;;;6155256;28;83129;-67
2021/11/18 00:52:35;;;;;;;8.18;5.80;;;23.50;45.30;;;;;;6143579;28;81414;-67
2021/11/18 00:55:35;;;;;;;9.68;6.45;;;23.50;46.10;;;;;;6147450;28;81526;-67
2021/11/18 00:58:37;;;;;;;9.52;6.10;;;23.50;45.40;;;;;;6144344;28;82104;-67
2021/11/18 01:01:43;;;;;;;9.43;5.82;;;23.50;45.10;;;;;;6150027;28;81476;-67
2021/11/18 01:04:43;;;;;;;8.20;5.60;;;23.40;44.90;;;;;;6135715;28;81667;-66
2021/11/18 01:07:44;;;;;;;8.73;6.13;;;23.50;45.20;;;;;;6143222;28;80757;-66
2021/11/18 01:10:47;;;;;;;10.52;6.18;;;23.40;45.40;;;;;;6141759;28;82305;-66
2021/11/18 01:13:47;;;;;;;7.63;5.07;;;23.50;45.30;;;;;;6156562;28;80854;-66
2021/11/18 01:16:48;;;;;;;7.78;5.72;;;23.40;45.50;;;;;;6154098;28;83635;-66
2021/11/18 01:19:48;;;;;;;8.18;5.60;;;23.40;45.40;;;;;;6155232;28;83010;-66
2021/11/18 01:22:49;;;;;;;9.75;6.07;;;23.40;45.20;;;;;;6153448;28;80604;-66
2021/11/18 01:25:51;;;;;;;8.63;5.95;;;23.40;45.10;;;;;;6150155;28;83095;-66
2021/11/18 01:28:51;;;;;;;8.75;6.30;;;23.40;45.00;;;;;;6150485;28;83147;-66
2021/11/18 01:31:53;;;;;;;9.27;6.07;;;23.40;45.50;;;;;;6150916;28;82650;-66
2021/11/18 01:34:54;;;;;;;8.30;6.05;;;23.40;45.00;;;;;;6138350;28;81863;-67
2021/11/18 01:37:55;;;;;;;8.57;5.95;;;23.40;45.40;;;;;;6141628;28;82984;-66
2021/11/18 01:40:56;;;;;;;9.98;5.85;;;23.40;45.50;;;;;;6149578;28;82265;-68
2021/11/18 01:44:08;;;;;;;10.35;6.20;;;23.40;45.40;;;;;;6155435;28;81543;-67
2021/11/18 01:47:08;;;;;;;7.65;5.93;;;23.40;45.10;;;;;;6154937;28;81413;-67
2021/11/18 01:50:09;;;;;;;11.85;6.15;;;23.40;45.10;;;;;;6152515;28;80312;-66
2021/11/18 01:53:10;;;;;;;9.68;6.57;;;23.40;45.30;;;;;;6150490;28;82247;-67
2021/11/18 01:56:13;;;;;;;8.82;5.70;;;23.40;45.20;;;;;;6154966;28;82831;-67
2021/11/18 01:59:14;;;;;;;9.23;5.72;;;23.40;45.60;;;;;;6151246;28;82440;-67
2021/11/18 02:02:35;;;;;;;7.80;5.55;;;23.40;45.40;;;;;;6151437;28;81670;-67
2021/11/18 02:05:50;;;;;;;10.93;5.93;;;23.40;45.60;;;;;;6148825;28;80190;-67
2021/11/18 02:08:51;;;;;;;9.27;6.05;;;23.40;45.80;;;;;;6147543;28;82345;-66
2021/11/18 02:11:58;;;;;;;8.50;5.53;;;23.40;45.30;;;;;;6149152;28;83382;-67
2021/11/18 02:14:59;;;;;;;8.07;5.70;;;23.40;45.30;;;;;;6143411;28;83196;-67
2021/11/18 02:17:59;;;;;;;9.45;6.10;;;23.40;45.50;;;;;;6148909;28;83012;-67
2021/11/18 02:21:04;;;;;;;8.52;5.85;;;23.30;45.50;;;;;;6152516;28;81269;-68
2021/11/18 02:24:06;;;;;;;7.93;5.32;;;23.40;45.50;;;;;;6146596;28;83373;-67
2021/11/18 02:27:06;;;;;;;6.07;4.72;;;23.40;45.60;;;;;;6148086;28;82714;-68
2021/11/18 02:30:07;;;;;;;7.75;5.43;;;23.30;45.30;;;;;;6145080;28;82261;-67
2021/11/18 02:33:08;;;;;;;7.78;5.07;;;23.30;45.20;;;;;;6137524;28;82233;-67
2021/11/18 02:36:08;;;;;;;8.63;5.63;;;23.30;45.40;;;;;;6154812;28;80190;-68
2021/11/18 02:39:09;;;;;;;6.65;4.85;;;23.30;45.80;;;;;;6157413;28;82274;-67
2021/11/18 02:42:09;;;;;;;7.88;5.22;;;23.40;45.40;;;;;;6152305;28;82723;-66
2021/11/18 02:45:10;;;;;;;6.68;4.55;;;23.30;45.30;;;;;;6142815;28;82870;-68
2021/11/18 02:48:11;;;;;;;6.78;4.30;;;23.40;46.20;;;;;;6145358;28;81451;-67
2021/11/18 02:51:11;;;;;;;5.93;4.47;;;23.30;45.90;;;;;;6151842;28;83172;-67
2021/11/18 02:54:12;;;;;;;6.25;4.72;;;23.30;46.00;;;;;;6139311;28;83302;-67
2021/11/18 02:57:13;;;;;;;7.22;5.25;;;23.30;45.30;;;;;;6140796;28;83095;-67
2021/11/18 03:00:17;;;;;;;7.38;4.90;;;23.40;45.20;;;;;;6139087;28;82257;-67
2021/11/18 03:03:17;;;;;;;6.85;4.70;;;23.30;45.00;;;;;;6148757;28;80183;-67
2021/11/18 03:06:18;;;;;;;5.78;4.10;;;23.30;46.10;;;;;;6150594;28;83387;-68
2021/11/18 03:09:18;;;;;;;6.82;5.15;;;23.30;45.90;;;;;;6141324;28;80464;-66
2021/11/18 03:12:19;;;;;;;7.32;4.70;;;23.40;45.10;;;;;;6142659;28;80694;-67
2021/11/18 03:15:19;;;;;;;6.30;4.47;;;23.40;45.30;;;;;;6141347;28;82043;-67
2021/11/18 03:18:22;;;;;;;5.88;4.50;;;23.30;45.20;;;;;;6146214;28;83548;-67
2021/11/18 03:21:23;;;;;;;6.43;4.50;;;23.40;45.50;;;;;;6147193;28;82931;-67
2021/11/18 03:24:27;;;;;;;6.25;4.63;;;23.30;44.50;;;;;;6145308;28;82396;-67
2021/11/18 03:27:29;;;;;;;6.88;4.95;;;23.40;44.10;;;;;;6146092;28;81923;-67
2021/11/18 03:30:32;;;;;;;8.68;5.38;;;23.40;43.90;;;;;;6158997;28;82274;-67
2021/11/18 03:33:37;;;;;;;7.05;5.22;;;23.40;43.70;;;;;;6151846;28;87920;-67
2021/11/18 03:36:38;;;;;;;7.85;5.45;;;23.50;43.60;;;;;;6147742;28;83685;-67
2021/11/18 03:39:39;;;;;;;8.07;4.60;;;23.50;43.50;;;;;;6142279;28;83042;-67
2021/11/18 03:42:40;;;;;;;7.30;5.22;;;23.50;43.40;;;;;;6140088;28;83412;-67
2021/11/18 03:45:41;;;;;;;6.75;4.35;;;23.50;43.30;;;;;;6156528;28;81131;-66
2021/11/18 03:48:42;;;;;;;6.25;4.85;;;23.60;43.20;;;;;;6145682;28;83225;-66
2021/11/18 03:51:43;;;;;;;7.63;5.28;;;23.60;43.20;;;;;;6139302;28;83392;-68
2021/11/18 03:54:44;;;;;;;7.40;5.05;;;23.60;43.10;;;;;;6143581;28;83733;-67
2021/11/18 03:57:44;;;;;;;6.53;4.53;;;23.60;43.10;;;;;;6137617;28;82867;-67
2021/11/18 04:00:48;;;;;;;6.85;4.70;;;23.60;43.10;;;;;;6138513;28;81424;-67
2021/11/18 04:03:54;;;;;;;5.78;4.78;;;23.60;43.00;;;;;;6146573;28;82660;-67
2021/11/18 04:06:55;;;;;;;7.25;4.70;;;23.70;43.10;;;;;;6151509;28;83306;-67
2021/11/18 04:09:56;;;;;;;7.80;5.00;;;23.70;42.90;;;;;;6145608;28;83107;-67
2021/11/18 04:12:57;;;;;;;7.93;5.63;;;23.70;42.70;;;;;;6139860;28;82414;-67
2021/11/18 04:15:58;;;;;;;8.48;5.68;;;23.70;42.70;;;;;;6148263;28;80921;-67
2021/11/18 04:19:04;;;;;;;7.65;5.18;;;23.70;42.80;;;;;;6145317;28;83414;-66
2021/11/18 04:22:05;;;;;;;11.65;6.10;;;23.70;42.70;;;;;;6146361;28;80421;-67
2021/11/18 04:25:09;;;;;;;7.20;5.45;;;23.70;42.60;;;;;;6153825;28;83418;-66
2021/11/18 04:28:10;;;;;;;7.07;4.78;;;23.70;42.50;;;;;;6143799;28;80284;-67
2021/11/18 04:31:10;;;;;;;8.52;5.45;;;23.70;42.70;;;;;;6153731;28;82873;-67
2021/11/18 04:34:11;;;;;;;8.32;5.78;;;23.80;42.70;;;;;;6143010;28;83324;-66
2021/11/18 04:37:12;;;;;;;7.75;4.90;;;23.80;43.00;;;;;;6143723;28;83018;-67
2021/11/18 04:40:13;;;;;;;9.40;5.85;;;23.80;42.80;;;;;;6145140;28;83375;-67
2021/11/18 04:43:13;;;;;;;7.28;5.00;;;23.80;42.70;;;;;;6152808;28;82748;-67
2021/11/18 04:46:14;;;;;;;8.35;5.93;;;23.80;42.80;;;;;;6157032;28;81822;-66
2021/11/18 04:49:14;;;;;;;7.63;5.38;;;23.80;42.60;;;;;;6146730;28;83074;-66
2021/11/18 04:52:15;;;;;;;8.73;6.05;;;23.80;42.60;;;;;;6158525;28;82029;-67
2021/11/18 04:55:19;;;;;;;7.45;5.20;;;23.80;42.60;;;;;;6157650;28;83455;-66
2021/11/18 04:58:19;;;;;;;7.40;5.15;;;23.80;42.70;;;;;;6150833;28;80425;-67
2021/11/18 05:01:20;;;;;;;8.65;5.65;;;23.80;42.80;;;;;;6149068;28;88001;-66
2021/11/18 05:04:22;;;;;;;8.50;5.80;;;23.80;42.80;;;;;;6142970;28;82207;-67
2021/11/18 05:07:22;;;;;;;7.15;5.40;;;23.80;42.70;;;;;;6154980;28;81914;-68
2021/11/18 05:10:23;;;;;;;8.25;4.82;;;23.80;43.00;;;;;;6158296;28;83322;-65
2021/11/18 05:13:24;;;;;;;7.13;5.35;;;23.90;43.10;;;;;;6152400;28;83384;-67
2021/11/18 05:16:30;;;;;;;6.63;4.72;;;23.90;43.10;;;;;;6156341;28;83242;-67
2021/11/18 05:19:31;;;;;;;5.03;3.92;;;23.80;44.10;;;;;;6153711;28;83506;-66
2021/11/18 05:22:32;;;;;;;5.13;3.53;;;23.70;45.50;;;;;;6151923;28;83207;-66
2021/11/18 05:25:32;;;;;;;4.00;3.15;;;23.70;46.50;;;;;;6141310;28;82096;-67
2021/11/18 05:28:33;;;;;;;3.67;3.17;;;23.60;47.10;;;;;;6139701;28;83053;-68
2021/11/18 05:31:35;;;;;;;5.97;2.97;;;23.60;48.10;;;;;;6152212;28;83483;-67
2021/11/18 05:35:04;;;;;;;3.75;2.85;;;23.60;48.60;;;;;;6143593;28;80318;-67
2021/11/18 05:38:05;;;;;;;3.30;2.75;;;23.60;49.60;;;;;;6154849;28;83597;-66
2021/11/18 05:41:06;;;;;;;4.45;2.35;;;23.60;50.20;;;;;;6156124;28;83136;-67
2021/11/18 05:44:08;;;;;;;3.00;2.42;;;23.50;50.50;;;;;;6150738;28;83291;-68
2021/11/18 05:47:09;;;;;;;3.92;2.80;;;23.50;50.90;;;;;;6144605;28;81777;-67
2021/11/18 05:50:10;;;;;;;3.08;2.25;;;23.50;51.00;;;;;;6150754;28;83672;-65
2021/11/18 05:53:11;;;;;;;2.70;2.30;;;23.50;51.50;;;;;;6147998;28;80678;-67
2021/11/18 05:56:11;;;;;;;3.70;2.72;;;23.40;52.40;;;;;;6135279;28;83285;-66
2021/11/18 05:59:13;;;;;;;2.92;2.40;;;23.40;52.90;;;;;;6145378;28;83477;-65
2021/11/18 06:02:14;;;;;;;2.50;2.30;;;23.50;53.20;;;;;;6154439;28;82924;-65
2021/11/18 06:05:14;;;;;;;3.50;2.47;;;23.50;53.60;;;;;;6154001;28;81454;-67
2021/11/18 06:08:15;;;;;;;2.25;2.05;;;23.50;54.00;;;;;;6150753;28;87248;-64
2021/11/18 06:11:15;;;;;;;2.83;2.42;;;23.50;54.20;;;;;;6141070;28;83119;-65
2021/11/18 06:14:16;;;;;;;2.58;2.13;;;23.50;54.50;;;;;;6144161;28;82979;-65
2021/11/18 06:17:19;;;;;;;3.20;2.25;;;23.50;55.00;;;;;;6144240;28;82328;-65
2021/11/18 06:20:21;;;;;;;2.50;2.30;;;23.50;54.70;;;;;;6141676;28;81811;-67
2021/11/18 06:23:21;;;;;;;3.33;2.10;;;23.60;53.90;;;;;;6144804;28;83048;-66
2021/11/18 06:26:25;;;;;;;5.93;2.75;;;23.70;53.90;;;;;;6138672;28;83263;-64
2021/11/18 06:29:30;;;;;;;4.93;2.53;;;23.70;53.30;;;;;;6144961;28;82474;-65
2021/11/18 06:32:30;;;;;;;14.68;2.88;;;23.70;53.10;;;;;;6145617;28;83024;-71
2021/11/18 06:35:31;;;;;;;4.75;3.05;;;23.70;53.00;;;;;;6145712;28;80869;-67
2021/11/18 06:38:31;;;;;;;4.05;2.97;;;23.70;52.70;;;;;;6137329;28;82569;-66
2021/11/18 06:41:33;;;;;;;5.55;2.88;;;23.70;52.60;;;;;;6154104;28;83350;-64
2021/11/18 06:44:33;;;;;;;4.18;2.90;;;23.70;52.60;;;;;;6143592;28;82906;-66
2021/11/18 06:47:34;;;;;;;3.55;2.58;;;23.70;52.60;;;;;;6135516;28;81421;-66
2021/11/18 06:50:35;;;;;;;7.40;3.10;;;23.70;52.10;;;;;;6151287;28;82757;-67
2021/11/18 06:53:41;;;;;;;6.60;2.92;;;23.70;52.20;;;;;;6136795;28;83317;-67
2021/11/18 06:56:42;;;;;;;3.78;3.00;;;23.70;51.80;;;;;;6148872;28;82476;-66
2021/11/18 06:59:42;;;;;;;3.42;2.70;;;23.70;51.70;;;;;;6139541;28;83597;-67
2021/11/18 07:02:43;;;;;;;4.68;3.20;;;23.70;51.60;;;;;;6137872;28;82887;-66
2021/11/18 07:05:44;;;;;;;13.77;3.50;;;23.70;51.50;;;;;;6141899;28;82119;-66
2021/11/18 07:08:45;;;;;;;4.88;3.30;;;23.60;51.20;;;;;;6149137;28;82132;-65
2021/11/18 07:11:45;;;;;;;5.35;3.25;;;23.60;51.70;;;;;;6147331;28;83051;-63
2021/11/18 07:14:46;;;;;;;11.23;3.47;;;23.60;51.30;;;;;;6141779;28;83177;-64
2021/11/18 07:17:47;;;;;;;5.00;3.42;;;23.60;51.40;;;;;;6149844;28;82288;-65
2021/11/18 07:20:47;;;;;;;7.80;3.65;;;23.60;51.30;;;;;;6147086;28;81619;-63
2021/11/18 07:23:49;;;;;;;6.32;3.63;;;23.60;51.30;;;;;;6140624;28;83269;-62
2021/11/18 07:26:49;;;;;;;4.35;3.70;;;23.60;51.20;;;;;;6148962;28;83124;-63
2021/11/18 07:29:50;;;;;;;5.45;3.72;;;23.60;51.00;;;;;;6137902;28;83099;-64
2021/11/18 07:32:51;;;;;;;4.90;3.60;;;23.50;51.10;;;;;;6148318;28;83748;-63
2021/11/18 07:35:56;;;;;;;6.63;3.80;;;23.60;51.10;;;;;;6140671;28;82025;-66
2021/11/18 07:38:57;;;;;;;5.85;3.65;;;23.60;50.80;;;;;;6142528;28;83464;-67
2021/11/18 07:41:58;;;;;;;4.80;3.42;;;23.60;50.80;;;;;;6143829;28;81399;-66
2021/11/18 07:45:17;;;;;;;7.07;4.10;;;23.60;51.10;;;;;;6151887;28;80214;-65
2021/11/18 07:48:46;;;;;;;18.13;5.28;;;23.70;51.30;;;;;;6123621;28;85592;-65
2021/11/18 07:51:50;;;;;;;11.10;5.05;;;23.70;52.20;;;;;;6148604;28;83413;-67
2021/11/18 07:54:50;;;;;;;10.48;4.95;;;23.70;52.20;;;;;;6159457;28;83479;-67
2021/11/18 07:57:51;;;;;;;14.55;5.13;;;23.70;52.30;;;;;;6156403;28;82823;-67
2021/11/18 08:00:52;;;;;;;13.27;4.78;;;23.80;52.10;;;;;;6143611;28;82480;-67
2021/11/18 08:03:58;;;;;;;;;;;23.90;52.10;;;;;;6140012;28;83339;-66
2021/11/18 08:07:31;;;;;;;7.60;4.50;;;24.00;51.80;;;;;;6154487;28;80392;-66
2021/11/18 08:10:31;;;;;;;6.63;4.05;;;24.00;51.90;;;;;;6152615;28;80583;-67
2021/11/18 08:13:32;;;;;;;11.10;4.50;;;24.00;51.50;;;;;;6154919;28;82058;-67
2021/11/18 08:16:33;;;;;;;10.50;4.75;;;24.10;51.40;;;;;;6156014;28;82555;-67
2021/11/18 08:19:35;;;;;;;12.50;4.90;;;24.10;51.80;;;;;;6145641;28;82049;-66
2021/11/18 08:22:46;;;;;;;6.95;4.28;;;24.20;52.00;;;;;;6153668;28;83683;-67
2021/11/18 08:25:48;;;;;;;12.63;5.63;;;24.20;52.70;;;;;;6151729;28;82202;-66
2021/11/18 08:28:48;;;;;;;12.35;5.97;;;24.20;52.80;;;;;;6154259;28;80631;-66
2021/11/18 08:31:49;;;;;;;16.17;7.15;;;24.20;53.20;;;;;;6144018;28;83407;-67
2021/11/18 08:35:00;;;;;;;16.95;7.93;;;24.20;53.40;;;;;;6136695;28;82472;-66
2021/11/18 08:38:01;;;;;;;22.60;9.35;;;24.20;53.90;;;;;;6155964;28;80581;-67
2021/11/18 08:41:02;;;;;;;28.98;10.32;;;24.20;55.00;;;;;;6151648;28;82958;-67
2021/11/18 08:44:03;;;;;;;28.52;12.57;;;24.10;55.70;;;;;;6143431;28;83419;-66
2021/11/18 08:47:04;;;;;;;26.77;12.75;;;24.10;56.30;;;;;;6150037;28;84234;-66
2021/11/18 08:50:05;;;;;;;27.30;12.00;;;24.10;56.90;;;;;;6145965;28;86020;-66
2021/11/18 08:53:07;;;;;;;28.85;11.63;;;24.10;57.50;;;;;;6153754;28;85629;-66
2021/11/18 08:56:08;;;;;;;29.35;12.93;;;24.10;57.70;;;;;;6141322;28;85996;-68
2021/11/18 08:59:08;;;;;;;33.45;14.40;;;24.10;58.50;;;;;;6140821;28;83457;-66
2021/11/18 09:02:10;;;;;;;27.88;16.85;;;24.10;59.60;;;;;;6144106;28;84246;-67
2021/11/18 09:05:12;;;;;;;43.28;27.17;;;24.10;60.10;;;;;;6146344;28;84133;-66
2021/11/18 09:08:12;;;;;;;50.35;34.70;;;24.20;60.30;;;;;;6145999;28;83003;-67
2021/11/18 09:11:17;;;;;;;48.13;36.38;;;24.20;60.30;;;;;;6151655;28;86083;-68
2021/11/18 09:14:21;;;;;;;46.50;35.25;;;24.20;60.20;;;;;;6147549;28;85839;-67
2021/11/18 09:17:26;;;;;;;46.00;33.25;;;24.20;60.10;;;;;;6147031;28;84331;-66
2021/11/18 09:20:45;;;;;;;44.58;32.13;;;24.20;59.80;;;;;;6142887;28;85330;-68
2021/11/18 09:23:46;;;;;;;38.42;28.67;;;24.30;59.70;;;;;;6146085;28;85394;-66
2021/11/18 09:26:47;;;;;;;37.30;27.65;;;24.20;59.60;;;;;;6153746;28;84647;-66
2021/11/18 09:29:48;;;;;;;42.22;29.38;;;24.30;59.10;;;;;;6146017;28;85120;-67
2021/11/18 09:32:55;;;;;;;39.28;28.58;;;24.30;58.80;;;;;;6145779;28;84998;-67
2021/11/18 09:35:57;;;;;;;37.38;26.58;;;24.40;58.40;;;;;;6144470;28;86028;-66
2021/11/18 09:38:58;;;;;;;30.55;23.55;;;24.50;57.90;;;;;;6146987;28;84000;-66
2021/11/18 09:42:01;;;;;;;27.70;19.30;;;24.50;57.20;;;;;;6165330;28;86179;-69
2021/11/18 09:45:17;;;;;;;23.35;15.77;;;24.50;55.60;;;;;;6149368;28;83338;-68
2021/11/18 09:48:18;;;;;;;21.02;14.82;;;24.40;53.30;;;;;;6147707;28;85578;-67
2021/11/18 09:51:25;;;;;;;19.60;13.00;;;24.30;52.50;;;;;;6136927;28;84667;-67
2021/11/18 09:54:25;;;;;;;18.50;12.95;;;24.30;50.60;;;;;;6133995;28;84996;-68
2021/11/18 09:57:28;;;;;;;16.40;11.02;;;24.20;49.70;;;;;;6152461;28;85726;-71
2021/11/18 10:00:42;;;;;;;15.85;11.50;;;24.20;49.60;;;;;;6147271;28;90497;-68
2021/11/18 10:03:44;;;;;;;16.02;10.57;;;24.20;50.30;;;;;;6144388;28;85277;-67
2021/11/18 10:06:45;;;;;;;13.65;10.05;;;24.10;50.40;;;;;;6148466;28;83386;-68
2021/11/18 10:09:47;;;;;;;11.80;9.00;;;24.10;51.00;;;;;;6149808;28;83489;-69
2021/11/18 10:12:48;;;;;;;13.77;8.40;;;24.10;52.00;;;;;;6152559;28;85436;-68
2021/11/18 10:15:48;;;;;;;11.07;8.30;;;24.10;51.40;;;;;;6150469;28;83791;-66
2021/11/18 10:18:51;;;;;;;10.93;8.50;;;24.10;51.50;;;;;;6152645;28;82645;-68
2021/11/18 10:21:52;;;;;;;11.20;7.22;;;24.00;51.70;;;;;;6148481;28;83179;-68
2021/11/18 10:24:52;;;;;;;11.25;7.95;;;24.10;52.00;;;;;;6154103;28;81416;-68
2021/11/18 10:27:53;;;;;;;9.93;6.53;;;24.10;52.00;;;;;;6155151;28;80277;-69
2021/11/18 10:30:56;;;;;;;8.35;6.53;;;24.10;52.20;;;;;;6156328;28;81139;-69
2021/11/18 10:33:58;;;;;;;9.45;7.13;;;24.10;52.30;;;;;;6146448;28;80136;-69
2021/11/18 10:36:58;;;;;;;8.52;6.32;;;24.00;52.50;;;;;;6150661;28;81400;-68
2021/11/18 10:39:59;;;;;;;8.57;5.80;;;24.00;52.30;;;;;;6149575;28;80402;-66
2021/11/18 10:42:59;;;;;;;9.05;6.35;;;24.10;52.50;;;;;;6144082;28;80397;-67
2021/11/18 10:46:00;;;;;;;11.65;7.00;;;24.00;52.40;;;;;;6144672;28;80528;-65
2021/11/18 10:49:01;;;;;;;12.48;7.57;;;24.10;52.40;;;;;;6149423;28;80923;-66
2021/11/18 10:52:04;;;;;;;7.72;5.78;;;24.20;52.40;;;;;;6147120;28;80670;-67
2021/11/18 10:55:04;;;;;;;14.15;6.60;;;24.30;52.50;;;;;;6155898;28;80457;-66
2021/11/18 10:58:05;;;;;;;7.15;5.65;;;24.40;52.10;;;;;;6152594;28;81596;-66
2021/11/18 11:01:06;;;;;;;6.90;5.40;;;24.60;52.10;;;;;;6139914;28;80521;-67
2021/11/18 11:04:06;;;;;;;9.48;5.43;;;24.70;51.90;;;;;;6147945;28;80624;-66
2021/11/18 11:07:07;;;;;;;9.88;4.82;;;24.90;51.90;;;;;;6148567;28;81110;-66
2021/11/18 11:10:07;;;;;;;8.48;5.97;;;25.00;51.50;;;;;;6154677;28;81246;-65
2021/11/18 11:13:08;;;;;;;8.90;5.40;;;24.90;51.50;;;;;;6144688;28;82071;-67
2021/11/18 11:16:08;;;;;;;9.70;5.03;;;24.80;51.70;;;;;;6142506;28;81917;-67
2021/11/18 11:19:09;;;;;;;6.10;4.45;;;24.80;51.70;;;;;;6139421;28;80320;-68
2021/11/18 11:22:09;;;;;;;6.22;4.38;;;24.90;51.60;;;;;;6140612;28;81359;-67
2021/11/18 11:25:10;;;;;;;6.45;4.20;;;24.80;51.50;;;;;;6142636;28;80431;-70
2021/11/18 11:28:10;;;;;;;4.60;3.53;;;24.70;51.40;;;;;;6149121;28;83169;-72
2021/11/18 11:31:11;;;;;;;6.28;3.35;;;24.70;51.20;;;;;;6151619;28;80528;-71
2021/11/18 11:34:11;;;;;;;5.30;3.20;;;24.60;51.10;;;;;;6141721;28;80813;-69
2021/11/18 11:37:12;;;;;;;6.25;3.60;;;24.60;51.20;;;;;;6144430;28;80364;-71
2021/11/18 11:40:13;;;;;;;8.25;4.22;;;24.50;51.20;;;;;;6143494;28;80412;-69
2021/11/18 11:43:13;;;;;;;10.75;5.50;;;24.50;51.30;;;;;;6156592;28;80966;-72
2021/11/18 11:46:14;;;;;;;14.02;7.60;;;24.50;51.30;;;;;;6150169;28;80506;-68
2021/11/18 11:49:14;;;;;;;15.05;7.63;;;24.60;51.20;;;;;;6152671;28;80180;-67
2021/11/18 11:52:15;;;;;;;14.80;7.43;;;24.50;51.00;;;;;;6148229;28;80450;-69
2021/11/18 11:55:15;;;;;;;13.60;7.65;;;24.50;51.00;;;;;;6142390;28;80813;-66
2021/11/18 11:58:16;;;;;;;21.55;9.15;;;24.40;51.60;;;;;;6152965;28;80390;-65
2021/11/18 12:01:16;;;;;;;32.38;11.35;;;24.40;51.00;;;;;;6133871;28;81474;-69
2021/11/18 12:04:17;;;;;;;37.55;12.18;;;24.30;50.80;;;;;;6148255;28;83326;-68
2021/11/18 12:07:17;;;;;;;37.97;10.85;;;24.40;50.90;;;;;;6147330;28;83297;-68
2021/11/18 12:10:18;;;;;;;35.95;10.65;;;24.40;50.80;;;;;;6143552;28;83261;-68
2021/11/18 12:13:19;;;;;;;34.13;10.52;;;24.40;50.90;;;;;;6147092;28;83240;-68
2021/11/18 12:16:19;;;;;;;28.92;9.88;;;24.30;50.70;;;;;;6145704;28;83000;-66
2021/11/18 12:19:21;;;;;;;21.92;7.97;;;24.30;50.80;;;;;;6149766;28;83835;-67
2021/11/18 12:22:23;;;;;;;21.08;7.28;;;24.30;51.10;;;;;;6145149;28;80415;-67
2021/11/18 12:25:23;;;;;;;19.63;6.85;;;24.20;51.30;;;;;;6149742;28;80705;-67
2021/11/18 12:28:25;;;;;;;16.45;6.03;;;24.20;51.20;;;;;;6150096;28;81206;-67
2021/11/18 12:31:26;;;;;;;15.95;5.55;;;24.10;51.40;;;;;;6149135;28;80421;-65
2021/11/18 12:34:27;;;;;;;17.67;5.00;;;24.10;51.30;;;;;;6149895;28;80589;-67
2021/11/18 12:37:27;;;;;;;20.88;6.32;;;24.10;51.70;;;;;;6151247;28;80135;-68
2021/11/18 12:40:28;;;;;;;13.05;5.25;;;24.10;52.50;;;;;;6153666;28;80311;-67
2021/11/18 12:43:29;;;;;;;11.70;4.30;;;24.10;52.20;;;;;;6158558;28;80519;-66
2021/11/18 12:46:29;;;;;;;9.95;4.30;;;24.10;52.20;;;;;;6153342;28;81514;-67
2021/11/18 12:49:30;;;;;;;7.80;3.88;;;24.10;52.30;;;;;;6150452;28;80399;-68
2021/11/18 12:52:31;;;;;;;7.47;3.72;;;24.00;52.30;;;;;;6153050;28;80813;-67
2021/11/18 12:55:32;;;;;;;7.10;3.55;;;24.00;52.10;;;;;;6147965;28;80372;-67
2021/11/18 12:58:32;;;;;;;7.93;3.85;;;24.00;52.20;;;;;;6156973;28;80396;-67
2021/11/18 13:01:33;;;;;;;7.78;3.58;;;24.00;52.50;;;;;;6151796;28;80490;-67
2021/11/18 13:04:33;;;;;;;8.98;3.42;;;24.00;52.10;;;;;;6155548;28;81478;-66
2021/11/18 13:07:34;;;;;;;7.80;3.67;;;24.00;52.10;;;;;;6149878;28;80660;-67
2021/11/18 13:10:35;;;;;;;8.60;3.47;;;24.00;51.90;;;;;;6151601;28;83200;-67
2021/11/18 13:13:36;;;;;;;8.73;3.05;;;24.00;51.80;;;;;;6157371;28;80156;-67
2021/11/18 13:16:37;;;;;;;8.02;3.38;;;23.90;52.10;;;;;;6154921;28;80272;-68
2021/11/18 13:19:38;;;;;;;7.85;3.17;;;23.90;52.00;;;;;;6154284;28;80424;-67
2021/11/18 13:22:38;;;;;;;6.38;3.10;;;24.00;51.90;;;;;;6155841;28;82351;-67
2021/11/18 13:25:39;;;;;;;5.95;2.83;;;23.90;51.70;;;;;;6158510;28;81006;-67
2021/11/18 13:28:39;;;;;;;3.75;2.70;;;23.90;51.80;;;;;;6157659;28;80476;-68
2021/11/18 13:31:40;;;;;;;7.97;2.80;;;23.90;51.90;;;;;;6155735;28;81366;-69
2021/11/18 13:34:40;;;;;;;7.53;2.75;;;23.90;51.60;;;;;;6153184;28;81866;-70
2021/11/18 13:37:41;;;;;;;9.60;3.03;;;23.90;51.80;;;;;;6152463;28;81857;-69
2021/11/18 13:40:41;;;;;;;6.68;3.10;;;23.90;51.60;;;;;;6152301;28;80670;-69
2021/11/18 13:43:42;;;;;;;3.60;2.67;;;23.90;51.70;;;;;;6158263;28;81809;-66
2021/11/18 13:46:42;;;;;;;6.85;3.17;;;23.80;51.70;;;;;;6154470;28;80602;-68
2021/11/18 13:49:43;;;;;;;7.20;2.95;;;23.90;51.50;;;;;;6149049;28;80508;-68
2021/11/18 13:52:43;;;;;;;4.32;2.45;;;23.80;51.50;;;;;;6154370;28;80608;-70
2021/11/18 13:55:44;;;;;;;7.03;3.08;;;23.80;51.90;;;;;;6151309;28;80951;-68
2021/11/18 13:58:44;;;;;;;5.72;2.90;;;23.90;51.30;;;;;;6152875;28;80549;-67
2021/11/18 14:01:45;;;;;;;4.75;2.63;;;23.90;51.50;;;;;;6147128;28;80480;-69
2021/11/18 14:04:45;;;;;;;7.30;3.38;;;23.90;51.00;;;;;;6148925;28;81320;-67
2021/11/18 14:07:46;;;;;;;3.92;2.60;;;23.90;50.80;;;;;;6153235;28;80667;-68
2021/11/18 14:10:46;;;;;;;4.13;2.60;;;23.90;50.50;;;;;;6150039;28;80552;-67
2021/11/18 14:13:47;;;;;;;3.97;2.30;;;23.80;50.00;;;;;;6152989;28;80685;-68
2021/11/18 14:16:47;;;;;;;3.65;2.30;;;23.70;50.70;;;;;;6148693;28;80438;-68
2021/11/18 14:19:48;;;;;;;4.57;2.53;;;23.60;51.20;;;;;;6155411;28;80242;-68
2021/11/18 14:22:49;;;;;;;3.25;1.88;;;23.50;51.50;;;;;;6153459;28;80875;-69
2021/11/18 14:25:49;;;;;;;2.50;1.92;;;23.60;52.00;;;;;;6153535;28;80552;-67
2021/11/18 14:28:50;;;;;;;2.33;2.10;;;23.60;52.20;;;;;;6148787;28;80934;-68
2021/11/18 14:31:50;;;;;;;5.00;2.45;;;23.60;52.20;;;;;;6153674;28;81087;-68
2021/11/18 14:34:51;;;;;;;5.78;2.17;;;23.60;52.60;;;;;;6147912;28;81944;-67
2021/11/18 14:37:51;;;;;;;3.72;2.42;;;23.60;52.90;;;;;;6141490;28;83229;-68
2021/11/18 14:40:55;;;;;;;5.53;2.17;;;23.50;53.00;;;;;;6143382;28;80536;-66
2021/11/18 14:43:56;;;;;;;3.03;2.30;;;23.50;52.90;;;;;;6152754;28;80456;-68
2021/11/18 14:46:56;;;;;;;8.10;2.45;;;23.50;53.00;;;;;;6150561;28;83487;-69
2021/11/18 14:49:57;;;;;;;5.03;1.80;;;23.50;53.60;;;;;;6150500;28;81425;-71
2021/11/18 14:52:57;;;;;;;5.18;2.33;;;23.50;54.00;;;;;;6154360;28;80716;-68
2021/11/18 14:55:58;;;;;;;2.40;1.83;;;23.50;54.20;;;;;;6150616;28;80382;-67
2021/11/18 14:58:58;;;;;;;4.35;2.25;;;23.50;54.50;;;;;;6148689;28;80541;-69
2021/11/18 15:02:00;;;;;;;4.88;2.45;;;23.50;54.20;;;;;;6149751;28;80646;-66
2021/11/18 15:05:01;;;;;;;3.95;2.20;;;23.50;54.60;;;;;;6144768;28;80576;-67
2021/11/18 15:08:01;;;;;;;4.57;2.40;;;23.50;55.00;;;;;;6150668;28;82108;-68
2021/11/18 15:11:02;;;;;;;4.63;2.30;;;23.50;55.30;;;;;;6148575;28;81849;-69
2021/11/18 15:14:02;;;;;;;5.72;2.28;;;23.50;55.70;;;;;;6149255;28;80897;-71
2021/11/18 15:17:04;;;;;;;3.00;2.10;;;23.60;55.30;;;;;;6146772;28;80623;-67
2021/11/18 15:20:05;;;;;;;3.50;2.45;;;23.60;54.10;;;;;;6151749;28;80645;-69
2021/11/18 15:23:05;;;;;;;4.43;2.22;;;23.60;53.80;;;;;;6150960;28;81440;-68
2021/11/18 15:26:06;;;;;;;5.60;2.40;;;23.60;53.30;;;;;;6150592;28;80876;-70
2021/11/18 15:29:06;;;;;;;4.25;2.60;;;23.70;52.90;;;;;;6149567;28;80779;-69
2021/11/18 15:32:07;;;;;;;3.65;2.88;;;23.70;52.50;;;;;;6149311;28;81225;-70
2021/11/18 15:35:07;;;;;;;6.47;3.42;;;23.70;52.10;;;;;;6147356;28;80338;-70
2021/11/18 15:38:09;;;;;;;3.53;2.35;;;23.70;51.60;;;;;;6150761;28;81918;-69
2021/11/18 15:41:10;;;;;;;5.80;2.95;;;23.80;51.30;;;;;;6152381;28;80487;-69